sensor_id;sensor_type;location;lat;lon;timestamp;P1;durP1;ratioP1;P2;durP2;ratioP2
20203;SDS011;10261;49.010;12.034;2022-11-18T00:00:02;12.25;;;8.38;;
20203;SDS011;10261;49.010;12.034;2022-11-18T00:01:06;13.27;;;9.43;;
20203;SDS011;10261;49.010;12.034;2022-11-18T00:02:11;13.90;;;9.60;;
20203;SDS011;10261;49.010;12.034;2022-11-18T00:03:14;16.55;;;9.77;;
20203;SDS011;10261;49.010;12.034;2022-11-18T00:04:16;13.23;;;9.70;;
20203;SDS011;10261;49.010;12.034;2022-11-18T00:05:19;11.98;;;7.78;;
20203;SDS011;10261;49.010;12.034;2022-11-18T00:06:22;12.40;;;8.45;;
20203;SDS011;10261;49.010;12.034;2022-11-18T00:07:27;13.13;;;8.35;;
20203;SDS011;10261;49.010;12.034;2022-11-18T00:08:29;12.93;;;8.90;;
20203;SDS011;10261;49.010;12.034;2022-11-18T00:09:32;10.43;;;7.95;;
20203;SDS011;10261;49.010;12.034;2022-11-18T00:10:35;14.27;;;8.88;;
20203;SDS011;10261;49.010;12.034;2022-11-18T00:11:39;12.73;;;9.13;;
20203;SDS011;10261;49.010;12.034;2022-11-18T00:12:59;11.73;;;9.00;;
20203;SDS011;10261;49.010;12.034;2022-11-18T00:14:20;11.07;;;8.10;;
20203;SDS011;10261;49.010;12.034;2022-11-18T00:15:24;10.55;;;7.93;;
20203;SDS011;10261;49.010;12.034;2022-11-18T00:16:32;11.75;;;9.10;;
20203;SDS011;10261;49.010;12.034;2022-11-18T00:17:35;11.95;;;8.75;;
20203;SDS011;10261;49.010;12.034;2022-11-18T00:18:38;12.45;;;8.20;;
20203;SDS011;10261;49.010;12.034;2022-11-18T00:19:40;15.45;;;9.15;;
20203;SDS011;10261;49.010;12.034;2022-11-18T00:20:43;14.55;;;8.40;;
20203;SDS011;10261;49.010;12.034;2022-11-18T00:21:45;11.75;;;8.57;;
20203;SDS011;10261;49.010;12.034;2022-11-18T00:22:48;12.80;;;8.40;;
20203;SDS011;10261;49.010;12.034;2022-11-18T00:23:50;13.73;;;8.70;;
20203;SDS011;10261;49.010;12.034;2022-11-18T00:24:53;11.63;;;7.93;;
20203;SDS011;10261;49.010;12.034;2022-11-18T00:25:58;13.98;;;8.48;;
20203;SDS011;10261;49.010;12.034;2022-11-18T00:27:03;14.25;;;8.70;;
20203;SDS011;10261;49.010;12.034;2022-11-18T00:28:05;12.88;;;8.10;;
20203;SDS011;10261;49.010;12.034;2022-11-18T00:29:08;15.65;;;10.00;;
20203;SDS011;10261;49.010;12.034;2022-11-18T00:30:10;12.60;;;7.68;;
20203;SDS011;10261;49.010;12.034;2022-11-18T00:31:14;12.65;;;9.00;;
20203;SDS011;10261;49.010;12.034;2022-11-18T00:32:16;14.25;;;9.38;;
20203;SDS011;10261;49.010;12.034;2022-11-18T00:33:20;12.05;;;9.20;;
20203;SDS011;10261;49.010;12.034;2022-11-18T00:34:22;12.45;;;8.82;;
20203;SDS011;10261;49.010;12.034;2022-11-18T00:35:26;13.90;;;9.82;;
20203;SDS011;10261;49.010;12.034;2022-11-18T00:36:28;15.82;;;9.32;;
20203;SDS011;10261;49.010;12.034;2022-11-18T00:37:32;14.52;;;9.70;;
20203;SDS011;10261;49.010;12.034;2022-11-18T00:38:34;15.52;;;8.90;;
20203;SDS011;10261;49.010;12.034;2022-11-18T00:39:37;14.90;;;9.82;;
20203;SDS011;10261;49.010;12.034;2022-11-18T00:40:39;15.95;;;9.38;;
20203;SDS011;10261;49.010;12.034;2022-11-18T00:41:42;14.07;;;9.15;;
20203;SDS011;10261;49.010;12.034;2022-11-18T00:43:05;16.35;;;10.32;;
20203;SDS011;10261;49.010;12.034;2022-11-18T00:44:07;16.67;;;9.80;;
20203;SDS011;10261;49.010;12.034;2022-11-18T00:45:09;21.40;;;9.98;;
20203;SDS011;10261;49.010;12.034;2022-11-18T00:46:13;17.65;;;10.23;;
20203;SDS011;10261;49.010;12.034;2022-11-18T00:47:15;15.00;;;9.73;;
20203;SDS011;10261;49.010;12.034;2022-11-18T00:48:19;15.15;;;9.85;;
20203;SDS011;10261;49.010;12.034;2022-11-18T00:49:22;15.20;;;9.75;;
20203;SDS011;10261;49.010;12.034;2022-11-18T00:50:25;14.73;;;9.82;;
20203;SDS011;10261;49.010;12.034;2022-11-18T00:51:27;13.70;;;8.88;;
20203;SDS011;10261;49.010;12.034;2022-11-18T00:52:30;16.17;;;9.48;;
20203;SDS011;10261;49.010;12.034;2022-11-18T00:53:32;14.35;;;9.70;;
20203;SDS011;10261;49.010;12.034;2022-11-18T00:54:35;16.10;;;9.45;;
20203;SDS011;10261;49.010;12.034;2022-11-18T00:55:37;13.48;;;9.20;;
20203;SDS011;10261;49.010;12.034;2022-11-18T00:56:40;15.55;;;9.65;;
20203;SDS011;10261;49.010;12.034;2022-11-18T00:57:42;15.00;;;9.50;;
20203;SDS011;10261;49.010;12.034;2022-11-18T00:58:44;12.07;;;8.00;;
20203;SDS011;10261;49.010;12.034;2022-11-18T01:01:08;17.40;;;10.10;;
20203;SDS011;10261;49.010;12.034;2022-11-18T01:02:10;13.18;;;8.63;;
20203;SDS011;10261;49.010;12.034;2022-11-18T01:03:13;11.85;;;8.60;;
20203;SDS011;10261;49.010;12.034;2022-11-18T01:04:17;11.45;;;8.20;;
20203;SDS011;10261;49.010;12.034;2022-11-18T01:05:20;16.42;;;9.80;;
20203;SDS011;10261;49.010;12.034;2022-11-18T01:06:22;12.68;;;9.00;;
20203;SDS011;10261;49.010;12.034;2022-11-18T01:07:25;13.27;;;9.05;;
20203;SDS011;10261;49.010;12.034;2022-11-18T01:08:27;13.88;;;9.13;;
20203;SDS011;10261;49.010;12.034;2022-11-18T01:09:30;14.70;;;8.38;;
20203;SDS011;10261;49.010;12.034;2022-11-18T01:10:32;14.88;;;9.52;;
20203;SDS011;10261;49.010;12.034;2022-11-18T01:11:35;14.90;;;8.98;;
20203;SDS011;10261;49.010;12.034;2022-11-18T01:12:56;12.82;;;8.60;;
20203;SDS011;10261;49.010;12.034;2022-11-18T01:14:16;15.80;;;9.23;;
20203;SDS011;10261;49.010;12.034;2022-11-18T01:15:18;15.30;;;9.65;;
20203;SDS011;10261;49.010;12.034;2022-11-18T01:16:23;15.57;;;8.90;;
20203;SDS011;10261;49.010;12.034;2022-11-18T01:17:28;14.07;;;8.75;;
20203;SDS011;10261;49.010;12.034;2022-11-18T01:18:31;13.45;;;9.93;;
20203;SDS011;10261;49.010;12.034;2022-11-18T01:19:35;16.20;;;10.13;;
20203;SDS011;10261;49.010;12.034;2022-11-18T01:20:38;13.77;;;9.20;;
20203;SDS011;10261;49.010;12.034;2022-11-18T01:21:40;14.35;;;9.32;;
20203;SDS011;10261;49.010;12.034;2022-11-18T01:22:43;14.90;;;9.60;;
20203;SDS011;10261;49.010;12.034;2022-11-18T01:23:45;15.55;;;10.25;;
20203;SDS011;10261;49.010;12.034;2022-11-18T01:24:49;12.93;;;9.60;;
20203;SDS011;10261;49.010;12.034;2022-11-18T01:25:51;17.08;;;10.45;;
20203;SDS011;10261;49.010;12.034;2022-11-18T01:26:54;14.00;;;9.10;;
20203;SDS011;10261;49.010;12.034;2022-11-18T01:27:56;16.52;;;10.45;;
20203;SDS011;10261;49.010;12.034;2022-11-18T01:28:59;15.00;;;10.57;;
20203;SDS011;10261;49.010;12.034;2022-11-18T01:30:01;15.82;;;10.30;;
20203;SDS011;10261;49.010;12.034;2022-11-18T01:31:05;19.00;;;10.02;;
20203;SDS011;10261;49.010;12.034;2022-11-18T01:32:08;13.05;;;8.32;;
20203;SDS011;10261;49.010;12.034;2022-11-18T01:33:25;19.50;;;10.05;;
20203;SDS011;10261;49.010;12.034;2022-11-18T01:34:27;14.15;;;10.25;;
20203;SDS011;10261;49.010;12.034;2022-11-18T01:35:34;17.48;;;9.60;;
20203;SDS011;10261;49.010;12.034;2022-11-18T01:36:36;16.05;;;9.80;;
20203;SDS011;10261;49.010;12.034;2022-11-18T01:37:39;11.93;;;9.10;;
20203;SDS011;10261;49.010;12.034;2022-11-18T01:38:41;14.45;;;9.55;;
20203;SDS011;10261;49.010;12.034;2022-11-18T01:39:44;13.38;;;8.65;;
20203;SDS011;10261;49.010;12.034;2022-11-18T01:41:07;14.15;;;9.30;;
20203;SDS011;10261;49.010;12.034;2022-11-18T01:42:12;13.00;;;9.90;;
20203;SDS011;10261;49.010;12.034;2022-11-18T01:43:16;13.60;;;9.27;;
20203;SDS011;10261;49.010;12.034;2022-11-18T01:45:57;14.32;;;9.30;;
20203;SDS011;10261;49.010;12.034;2022-11-18T01:47:00;14.68;;;9.48;;
20203;SDS011;10261;49.010;12.034;2022-11-18T01:48:03;13.32;;;9.10;;
20203;SDS011;10261;49.010;12.034;2022-11-18T01:49:12;12.55;;;8.95;;
20203;SDS011;10261;49.010;12.034;2022-11-18T01:50:16;13.13;;;9.30;;
20203;SDS011;10261;49.010;12.034;2022-11-18T01:51:24;13.90;;;9.18;;
20203;SDS011;10261;49.010;12.034;2022-11-18T01:52:28;11.55;;;8.13;;
20203;SDS011;10261;49.010;12.034;2022-11-18T01:53:34;13.70;;;9.25;;
20203;SDS011;10261;49.010;12.034;2022-11-18T01:54:41;12.00;;;8.55;;
20203;SDS011;10261;49.010;12.034;2022-11-18T01:55:49;17.73;;;8.90;;
20203;SDS011;10261;49.010;12.034;2022-11-18T01:56:55;12.70;;;8.73;;
20203;SDS011;10261;49.010;12.034;2022-11-18T01:58:02;15.18;;;8.93;;
20203;SDS011;10261;49.010;12.034;2022-11-18T01:59:10;15.65;;;9.10;;
20203;SDS011;10261;49.010;12.034;2022-11-18T02:00:17;17.13;;;9.25;;
20203;SDS011;10261;49.010;12.034;2022-11-18T02:01:19;12.60;;;8.43;;
20203;SDS011;10261;49.010;12.034;2022-11-18T02:02:22;13.05;;;9.00;;
20203;SDS011;10261;49.010;12.034;2022-11-18T02:03:24;12.75;;;9.35;;
20203;SDS011;10261;49.010;12.034;2022-11-18T02:04:28;11.35;;;8.13;;
20203;SDS011;10261;49.010;12.034;2022-11-18T02:05:31;13.98;;;9.05;;
20203;SDS011;10261;49.010;12.034;2022-11-18T02:06:37;12.27;;;8.40;;
20203;SDS011;10261;49.010;12.034;2022-11-18T02:07:40;13.93;;;8.77;;
20203;SDS011;10261;49.010;12.034;2022-11-18T02:08:44;12.30;;;8.75;;
20203;SDS011;10261;49.010;12.034;2022-11-18T02:09:46;15.05;;;9.30;;
20203;SDS011;10261;49.010;12.034;2022-11-18T02:10:50;13.13;;;9.55;;
20203;SDS011;10261;49.010;12.034;2022-11-18T02:11:52;12.02;;;8.77;;
20203;SDS011;10261;49.010;12.034;2022-11-18T02:12:56;13.10;;;9.25;;
20203;SDS011;10261;49.010;12.034;2022-11-18T02:14:00;12.02;;;8.65;;
20203;SDS011;10261;49.010;12.034;2022-11-18T02:15:04;12.18;;;8.32;;
20203;SDS011;10261;49.010;12.034;2022-11-18T02:16:09;12.02;;;8.82;;
20203;SDS011;10261;49.010;12.034;2022-11-18T02:17:20;8.90;;;7.20;;
20203;SDS011;10261;49.010;12.034;2022-11-18T02:18:32;10.93;;;8.23;;
20203;SDS011;10261;49.010;12.034;2022-11-18T02:19:49;9.73;;;7.72;;
20203;SDS011;10261;49.010;12.034;2022-11-18T02:21:16;12.73;;;8.93;;
20203;SDS011;10261;49.010;12.034;2022-11-18T02:22:34;10.85;;;8.82;;
20203;SDS011;10261;49.010;12.034;2022-11-18T02:25:25;11.73;;;8.10;;
20203;SDS011;10261;49.010;12.034;2022-11-18T02:28:19;13.52;;;9.13;;
20203;SDS011;10261;49.010;12.034;2022-11-18T02:29:31;13.90;;;9.15;;
20203;SDS011;10261;49.010;12.034;2022-11-18T02:30:40;16.10;;;9.95;;
20203;SDS011;10261;49.010;12.034;2022-11-18T02:31:46;12.05;;;8.68;;
20203;SDS011;10261;49.010;12.034;2022-11-18T02:32:56;14.05;;;9.40;;
20203;SDS011;10261;49.010;12.034;2022-11-18T02:34:05;13.02;;;9.82;;
20203;SDS011;10261;49.010;12.034;2022-11-18T02:35:15;14.15;;;9.40;;
20203;SDS011;10261;49.010;12.034;2022-11-18T02:36:24;12.10;;;8.40;;
20203;SDS011;10261;49.010;12.034;2022-11-18T02:37:34;12.20;;;8.48;;
20203;SDS011;10261;49.010;12.034;2022-11-18T02:38:43;16.50;;;8.80;;
20203;SDS011;10261;49.010;12.034;2022-11-18T02:39:51;13.02;;;8.68;;
20203;SDS011;10261;49.010;12.034;2022-11-18T02:40:58;10.57;;;8.00;;
20203;SDS011;10261;49.010;12.034;2022-11-18T02:42:06;13.00;;;8.90;;
20203;SDS011;10261;49.010;12.034;2022-11-18T02:43:12;14.82;;;8.13;;
20203;SDS011;10261;49.010;12.034;2022-11-18T02:44:19;12.90;;;8.65;;
20203;SDS011;10261;49.010;12.034;2022-11-18T02:45:26;12.88;;;9.15;;
20203;SDS011;10261;49.010;12.034;2022-11-18T02:46:31;15.60;;;8.85;;
20203;SDS011;10261;49.010;12.034;2022-11-18T02:47:36;12.43;;;8.68;;
20203;SDS011;10261;49.010;12.034;2022-11-18T02:48:43;9.13;;;7.38;;
20203;SDS011;10261;49.010;12.034;2022-11-18T02:49:49;13.68;;;8.60;;
20203;SDS011;10261;49.010;12.034;2022-11-18T02:50:55;10.80;;;7.65;;
20203;SDS011;10261;49.010;12.034;2022-11-18T02:51:59;11.73;;;8.05;;
20203;SDS011;10261;49.010;12.034;2022-11-18T02:53:04;12.48;;;9.00;;
20203;SDS011;10261;49.010;12.034;2022-11-18T02:54:08;11.32;;;8.15;;
20203;SDS011;10261;49.010;12.034;2022-11-18T02:55:15;10.80;;;8.32;;
20203;SDS011;10261;49.010;12.034;2022-11-18T02:56:18;10.82;;;7.82;;
20203;SDS011;10261;49.010;12.034;2022-11-18T02:57:23;13.45;;;8.85;;
20203;SDS011;10261;49.010;12.034;2022-11-18T02:58:26;10.05;;;8.20;;
20203;SDS011;10261;49.010;12.034;2022-11-18T02:59:29;10.38;;;7.78;;
20203;SDS011;10261;49.010;12.034;2022-11-18T03:00:33;13.95;;;9.30;;
20203;SDS011;10261;49.010;12.034;2022-11-18T03:01:37;12.35;;;8.40;;
20203;SDS011;10261;49.010;12.034;2022-11-18T03:02:41;13.18;;;8.85;;
20203;SDS011;10261;49.010;12.034;2022-11-18T03:03:44;9.82;;;8.25;;
20203;SDS011;10261;49.010;12.034;2022-11-18T03:04:47;16.38;;;8.77;;
20203;SDS011;10261;49.010;12.034;2022-11-18T03:05:52;14.02;;;8.90;;
20203;SDS011;10261;49.010;12.034;2022-11-18T03:07:05;13.20;;;8.48;;
20203;SDS011;10261;49.010;12.034;2022-11-18T03:08:14;11.82;;;7.95;;
20203;SDS011;10261;49.010;12.034;2022-11-18T03:09:21;14.32;;;8.57;;
20203;SDS011;10261;49.010;12.034;2022-11-18T03:10:31;9.93;;;8.13;;
20203;SDS011;10261;49.010;12.034;2022-11-18T03:11:43;11.20;;;8.57;;
20203;SDS011;10261;49.010;12.034;2022-11-18T03:12:53;13.07;;;8.40;;
20203;SDS011;10261;49.010;12.034;2022-11-18T03:14:06;11.70;;;8.30;;
20203;SDS011;10261;49.010;12.034;2022-11-18T03:15:18;8.88;;;7.30;;
20203;SDS011;10261;49.010;12.034;2022-11-18T03:16:28;15.65;;;8.65;;
20203;SDS011;10261;49.010;12.034;2022-11-18T03:17:37;12.68;;;8.85;;
20203;SDS011;10261;49.010;12.034;2022-11-18T03:18:48;11.70;;;7.93;;
20203;SDS011;10261;49.010;12.034;2022-11-18T03:19:57;10.25;;;7.70;;
20203;SDS011;10261;49.010;12.034;2022-11-18T03:21:09;10.60;;;7.88;;
20203;SDS011;10261;49.010;12.034;2022-11-18T03:22:15;11.35;;;7.85;;
20203;SDS011;10261;49.010;12.034;2022-11-18T03:23:24;10.82;;;8.05;;
20203;SDS011;10261;49.010;12.034;2022-11-18T03:24:30;10.48;;;7.63;;
20203;SDS011;10261;49.010;12.034;2022-11-18T03:25:37;11.57;;;8.20;;
20203;SDS011;10261;49.010;12.034;2022-11-18T03:26:46;11.43;;;7.78;;
20203;SDS011;10261;49.010;12.034;2022-11-18T03:27:53;12.77;;;8.07;;
20203;SDS011;10261;49.010;12.034;2022-11-18T03:29:03;13.25;;;8.15;;
20203;SDS011;10261;49.010;12.034;2022-11-18T03:30:10;13.38;;;8.50;;
20203;SDS011;10261;49.010;12.034;2022-11-18T03:31:18;13.50;;;8.50;;
20203;SDS011;10261;49.010;12.034;2022-11-18T03:32:27;14.43;;;8.73;;
20203;SDS011;10261;49.010;12.034;2022-11-18T03:33:32;13.30;;;8.00;;
20203;SDS011;10261;49.010;12.034;2022-11-18T03:34:39;11.68;;;8.30;;
20203;SDS011;10261;49.010;12.034;2022-11-18T03:35:44;15.02;;;9.20;;
20203;SDS011;10261;49.010;12.034;2022-11-18T03:36:51;13.48;;;8.50;;
20203;SDS011;10261;49.010;12.034;2022-11-18T03:38:02;10.68;;;7.32;;
20203;SDS011;10261;49.010;12.034;2022-11-18T03:39:09;12.90;;;9.05;;
20203;SDS011;10261;49.010;12.034;2022-11-18T03:40:14;14.73;;;8.52;;
20203;SDS011;10261;49.010;12.034;2022-11-18T03:41:21;12.20;;;7.97;;
20203;SDS011;10261;49.010;12.034;2022-11-18T03:42:27;9.80;;;7.60;;
20203;SDS011;10261;49.010;12.034;2022-11-18T03:43:35;10.95;;;8.07;;
20203;SDS011;10261;49.010;12.034;2022-11-18T03:44:41;10.60;;;7.65;;
20203;SDS011;10261;49.010;12.034;2022-11-18T03:45:53;10.18;;;8.23;;
20203;SDS011;10261;49.010;12.034;2022-11-18T03:47:01;12.00;;;7.55;;
20203;SDS011;10261;49.010;12.034;2022-11-18T03:48:10;10.68;;;7.90;;
20203;SDS011;10261;49.010;12.034;2022-11-18T03:49:16;9.85;;;7.68;;
20203;SDS011;10261;49.010;12.034;2022-11-18T03:50:25;10.80;;;7.93;;
20203;SDS011;10261;49.010;12.034;2022-11-18T03:51:31;13.18;;;8.25;;
20203;SDS011;10261;49.010;12.034;2022-11-18T03:52:54;11.75;;;8.60;;
20203;SDS011;10261;49.010;12.034;2022-11-18T03:53:57;12.60;;;8.13;;
20203;SDS011;10261;49.010;12.034;2022-11-18T03:55:10;10.48;;;7.65;;
20203;SDS011;10261;49.010;12.034;2022-11-18T03:56:15;10.25;;;7.07;;
20203;SDS011;10261;49.010;12.034;2022-11-18T03:57:22;17.85;;;7.78;;
20203;SDS011;10261;49.010;12.034;2022-11-18T03:58:31;12.30;;;7.65;;
20203;SDS011;10261;49.010;12.034;2022-11-18T03:59:38;10.25;;;7.47;;
20203;SDS011;10261;49.010;12.034;2022-11-18T04:00:44;15.27;;;7.80;;
20203;SDS011;10261;49.010;12.034;2022-11-18T04:01:51;12.40;;;8.43;;
20203;SDS011;10261;49.010;12.034;2022-11-18T04:02:55;10.60;;;7.60;;
20203;SDS011;10261;49.010;12.034;2022-11-18T04:03:59;12.63;;;8.90;;
20203;SDS011;10261;49.010;12.034;2022-11-18T04:05:02;13.50;;;8.75;;
20203;SDS011;10261;49.010;12.034;2022-11-18T04:06:21;14.30;;;9.13;;
20203;SDS011;10261;49.010;12.034;2022-11-18T04:07:29;16.83;;;8.75;;
20203;SDS011;10261;49.010;12.034;2022-11-18T04:08:35;15.77;;;10.32;;
20203;SDS011;10261;49.010;12.034;2022-11-18T04:09:41;17.38;;;9.68;;
20203;SDS011;10261;49.010;12.034;2022-11-18T04:10:48;17.50;;;9.65;;
20203;SDS011;10261;49.010;12.034;2022-11-18T04:12:01;17.05;;;11.57;;
20203;SDS011;10261;49.010;12.034;2022-11-18T04:13:08;27.98;;;22.13;;
20203;SDS011;10261;49.010;12.034;2022-11-18T04:14:16;29.88;;;22.48;;
20203;SDS011;10261;49.010;12.034;2022-11-18T04:15:20;18.70;;;14.85;;
20203;SDS011;10261;49.010;12.034;2022-11-18T04:16:24;17.00;;;11.15;;
20203;SDS011;10261;49.010;12.034;2022-11-18T04:17:27;17.45;;;10.95;;
20203;SDS011;10261;49.010;12.034;2022-11-18T04:18:29;14.18;;;9.73;;
20203;SDS011;10261;49.010;12.034;2022-11-18T04:19:34;18.02;;;10.38;;
20203;SDS011;10261;49.010;12.034;2022-11-18T04:20:36;14.95;;;10.40;;
20203;SDS011;10261;49.010;12.034;2022-11-18T04:21:39;15.18;;;9.88;;
20203;SDS011;10261;49.010;12.034;2022-11-18T04:22:42;16.17;;;9.52;;
20203;SDS011;10261;49.010;12.034;2022-11-18T04:23:45;16.85;;;9.40;;
20203;SDS011;10261;49.010;12.034;2022-11-18T04:24:47;13.52;;;9.00;;
20203;SDS011;10261;49.010;12.034;2022-11-18T04:25:50;16.10;;;10.02;;
20203;SDS011;10261;49.010;12.034;2022-11-18T04:26:52;12.63;;;9.27;;
20203;SDS011;10261;49.010;12.034;2022-11-18T04:27:55;11.43;;;9.05;;
20203;SDS011;10261;49.010;12.034;2022-11-18T04:28:57;13.57;;;9.02;;
20203;SDS011;10261;49.010;12.034;2022-11-18T04:30:00;13.73;;;8.35;;
20203;SDS011;10261;49.010;12.034;2022-11-18T04:31:03;13.32;;;8.85;;
20203;SDS011;10261;49.010;12.034;2022-11-18T04:32:06;10.93;;;8.27;;
20203;SDS011;10261;49.010;12.034;2022-11-18T04:33:08;15.07;;;10.07;;
20203;SDS011;10261;49.010;12.034;2022-11-18T04:34:11;14.68;;;10.55;;
20203;SDS011;10261;49.010;12.034;2022-11-18T04:35:15;18.10;;;11.93;;
20203;SDS011;10261;49.010;12.034;2022-11-18T04:36:18;14.15;;;9.55;;
20203;SDS011;10261;49.010;12.034;2022-11-18T04:37:20;15.50;;;10.35;;
20203;SDS011;10261;49.010;12.034;2022-11-18T04:38:23;12.35;;;9.43;;
20203;SDS011;10261;49.010;12.034;2022-11-18T04:39:25;12.98;;;9.13;;
20203;SDS011;10261;49.010;12.034;2022-11-18T04:40:28;10.80;;;8.50;;
20203;SDS011;10261;49.010;12.034;2022-11-18T04:41:30;13.32;;;8.45;;
20203;SDS011;10261;49.010;12.034;2022-11-18T04:42:51;12.40;;;8.38;;
20203;SDS011;10261;49.010;12.034;2022-11-18T04:43:54;12.95;;;9.15;;
20203;SDS011;10261;49.010;12.034;2022-11-18T04:44:56;12.45;;;7.90;;
20203;SDS011;10261;49.010;12.034;2022-11-18T04:45:58;16.17;;;8.63;;
20203;SDS011;10261;49.010;12.034;2022-11-18T04:47:01;13.77;;;8.77;;
20203;SDS011;10261;49.010;12.034;2022-11-18T04:48:06;14.23;;;8.52;;
20203;SDS011;10261;49.010;12.034;2022-11-18T04:49:08;14.70;;;9.77;;
20203;SDS011;10261;49.010;12.034;2022-11-18T04:50:12;14.20;;;8.50;;
20203;SDS011;10261;49.010;12.034;2022-11-18T04:51:17;16.63;;;9.23;;
20203;SDS011;10261;49.010;12.034;2022-11-18T04:52:19;13.27;;;8.40;;
20203;SDS011;10261;49.010;12.034;2022-11-18T04:53:22;9.27;;;7.50;;
20203;SDS011;10261;49.010;12.034;2022-11-18T04:54:24;12.07;;;8.35;;
20203;SDS011;10261;49.010;12.034;2022-11-18T04:55:28;12.50;;;7.43;;
20203;SDS011;10261;49.010;12.034;2022-11-18T04:56:30;13.98;;;8.18;;
20203;SDS011;10261;49.010;12.034;2022-11-18T04:57:33;13.15;;;8.77;;
20203;SDS011;10261;49.010;12.034;2022-11-18T04:58:36;10.65;;;7.63;;
20203;SDS011;10261;49.010;12.034;2022-11-18T04:59:38;9.43;;;6.97;;
20203;SDS011;10261;49.010;12.034;2022-11-18T05:00:41;10.98;;;7.88;;
20203;SDS011;10261;49.010;12.034;2022-11-18T05:01:44;10.23;;;7.60;;
20203;SDS011;10261;49.010;12.034;2022-11-18T05:02:47;10.88;;;8.10;;
20203;SDS011;10261;49.010;12.034;2022-11-18T05:03:49;10.25;;;7.50;;
20203;SDS011;10261;49.010;12.034;2022-11-18T05:04:52;12.77;;;7.55;;
20203;SDS011;10261;49.010;12.034;2022-11-18T05:05:59;10.02;;;6.68;;
20203;SDS011;10261;49.010;12.034;2022-11-18T05:07:03;10.52;;;8.10;;
20203;SDS011;10261;49.010;12.034;2022-11-18T05:08:08;11.48;;;7.03;;
20203;SDS011;10261;49.010;12.034;2022-11-18T05:09:10;8.20;;;6.75;;
20203;SDS011;10261;49.010;12.034;2022-11-18T05:10:13;9.95;;;7.25;;
20203;SDS011;10261;49.010;12.034;2022-11-18T05:11:15;8.82;;;7.47;;
20203;SDS011;10261;49.010;12.034;2022-11-18T05:12:35;8.55;;;6.72;;
20203;SDS011;10261;49.010;12.034;2022-11-18T05:13:51;9.43;;;7.72;;
20203;SDS011;10261;49.010;12.034;2022-11-18T05:14:53;10.07;;;7.28;;
20203;SDS011;10261;49.010;12.034;2022-11-18T05:16:05;10.00;;;7.55;;
20203;SDS011;10261;49.010;12.034;2022-11-18T05:17:07;8.80;;;7.00;;
20203;SDS011;10261;49.010;12.034;2022-11-18T05:18:11;10.18;;;7.10;;
20203;SDS011;10261;49.010;12.034;2022-11-18T05:19:13;9.55;;;7.88;;
20203;SDS011;10261;49.010;12.034;2022-11-18T05:20:16;8.45;;;6.80;;
20203;SDS011;10261;49.010;12.034;2022-11-18T05:21:19;9.10;;;6.93;;
20203;SDS011;10261;49.010;12.034;2022-11-18T05:22:23;7.85;;;6.80;;
20203;SDS011;10261;49.010;12.034;2022-11-18T05:23:26;9.35;;;6.68;;
20203;SDS011;10261;49.010;12.034;2022-11-18T05:24:28;9.55;;;7.65;;
20203;SDS011;10261;49.010;12.034;2022-11-18T05:25:31;9.23;;;7.13;;
20203;SDS011;10261;49.010;12.034;2022-11-18T05:26:33;8.05;;;6.57;;
20203;SDS011;10261;49.010;12.034;2022-11-18T05:27:35;8.52;;;6.20;;
20203;SDS011;10261;49.010;12.034;2022-11-18T05:28:38;10.63;;;7.15;;
20203;SDS011;10261;49.010;12.034;2022-11-18T05:29:40;8.30;;;6.65;;
20203;SDS011;10261;49.010;12.034;2022-11-18T05:30:44;10.23;;;7.55;;
20203;SDS011;10261;49.010;12.034;2022-11-18T05:31:46;8.77;;;7.15;;
20203;SDS011;10261;49.010;12.034;2022-11-18T05:32:49;19.25;;;7.20;;
20203;SDS011;10261;49.010;12.034;2022-11-18T05:33:52;9.65;;;7.10;;
20203;SDS011;10261;49.010;12.034;2022-11-18T05:34:54;9.65;;;7.65;;
20203;SDS011;10261;49.010;12.034;2022-11-18T05:36:01;12.23;;;7.90;;
20203;SDS011;10261;49.010;12.034;2022-11-18T05:37:16;11.45;;;7.50;;
20203;SDS011;10261;49.010;12.034;2022-11-18T05:38:20;10.73;;;7.65;;
20203;SDS011;10261;49.010;12.034;2022-11-18T05:39:22;9.38;;;7.32;;
20203;SDS011;10261;49.010;12.034;2022-11-18T05:40:25;9.38;;;7.40;;
20203;SDS011;10261;49.010;12.034;2022-11-18T05:41:27;12.18;;;7.45;;
20203;SDS011;10261;49.010;12.034;2022-11-18T05:42:47;9.38;;;7.78;;
20203;SDS011;10261;49.010;12.034;2022-11-18T05:44:07;12.43;;;7.97;;
20203;SDS011;10261;49.010;12.034;2022-11-18T05:45:10;14.00;;;9.90;;
20203;SDS011;10261;49.010;12.034;2022-11-18T05:46:13;19.95;;;15.45;;
20203;SDS011;10261;49.010;12.034;2022-11-18T05:47:15;20.20;;;14.77;;
20203;SDS011;10261;49.010;12.034;2022-11-18T05:48:18;23.42;;;18.48;;
20203;SDS011;10261;49.010;12.034;2022-11-18T05:49:21;25.60;;;18.45;;
20203;SDS011;10261;49.010;12.034;2022-11-18T05:50:24;22.55;;;18.23;;
20203;SDS011;10261;49.010;12.034;2022-11-18T05:51:26;27.27;;;18.65;;
20203;SDS011;10261;49.010;12.034;2022-11-18T05:52:30;28.17;;;20.27;;
20203;SDS011;10261;49.010;12.034;2022-11-18T05:53:33;30.33;;;16.92;;
20203;SDS011;10261;49.010;12.034;2022-11-18T05:54:37;22.85;;;16.33;;
20203;SDS011;10261;49.010;12.034;2022-11-18T05:55:41;25.17;;;17.73;;
20203;SDS011;10261;49.010;12.034;2022-11-18T05:56:49;22.65;;;15.45;;
20203;SDS011;10261;49.010;12.034;2022-11-18T05:57:51;20.27;;;13.88;;
20203;SDS011;10261;49.010;12.034;2022-11-18T05:58:54;20.63;;;12.68;;
20203;SDS011;10261;49.010;12.034;2022-11-18T05:59:56;16.75;;;12.07;;
20203;SDS011;10261;49.010;12.034;2022-11-18T06:01:04;16.25;;;11.45;;
20203;SDS011;10261;49.010;12.034;2022-11-18T06:02:10;14.52;;;10.88;;
20203;SDS011;10261;49.010;12.034;2022-11-18T06:03:19;20.60;;;12.45;;
20203;SDS011;10261;49.010;12.034;2022-11-18T06:04:31;19.42;;;12.52;;
20203;SDS011;10261;49.010;12.034;2022-11-18T06:05:36;17.83;;;12.57;;
20203;SDS011;10261;49.010;12.034;2022-11-18T06:06:38;20.08;;;12.80;;
20203;SDS011;10261;49.010;12.034;2022-11-18T06:07:41;22.65;;;13.30;;
20203;SDS011;10261;49.010;12.034;2022-11-18T06:08:47;15.95;;;11.27;;
20203;SDS011;10261;49.010;12.034;2022-11-18T06:09:55;15.65;;;11.85;;
20203;SDS011;10261;49.010;12.034;2022-11-18T06:11:05;19.08;;;13.18;;
20203;SDS011;10261;49.010;12.034;2022-11-18T06:12:12;23.27;;;13.20;;
20203;SDS011;10261;49.010;12.034;2022-11-18T06:13:18;25.95;;;14.30;;
20203;SDS011;10261;49.010;12.034;2022-11-18T06:14:26;16.75;;;11.40;;
20203;SDS011;10261;49.010;12.034;2022-11-18T06:15:34;17.13;;;11.68;;
20203;SDS011;10261;49.010;12.034;2022-11-18T06:16:42;14.68;;;10.90;;
20203;SDS011;10261;49.010;12.034;2022-11-18T06:17:51;13.00;;;9.88;;
20203;SDS011;10261;49.010;12.034;2022-11-18T06:19:15;14.38;;;10.35;;
20203;SDS011;10261;49.010;12.034;2022-11-18T06:20:21;12.15;;;9.30;;
20203;SDS011;10261;49.010;12.034;2022-11-18T06:21:24;12.13;;;9.45;;
20203;SDS011;10261;49.010;12.034;2022-11-18T06:22:28;13.80;;;9.68;;
20203;SDS011;10261;49.010;12.034;2022-11-18T06:23:32;11.52;;;8.38;;
20203;SDS011;10261;49.010;12.034;2022-11-18T06:24:38;11.13;;;8.10;;
20203;SDS011;10261;49.010;12.034;2022-11-18T06:25:42;11.48;;;8.50;;
20203;SDS011;10261;49.010;12.034;2022-11-18T06:26:44;11.00;;;8.27;;
20203;SDS011;10261;49.010;12.034;2022-11-18T06:27:48;11.50;;;8.05;;
20203;SDS011;10261;49.010;12.034;2022-11-18T06:28:52;16.50;;;8.73;;